createdAt,value
2018-12-24T00:01:43.028Z,404.75
2018-12-24T00:04:15.060Z,408.50
2018-12-24T00:06:47.004Z,374.50
2018-12-24T00:09:19.227Z,372.25
2018-12-24T00:11:53.195Z,397.25
2018-12-24T00:14:25.187Z,419.75
2018-12-24T00:16:57.085Z,440.25
2018-12-24T00:19:28.719Z,451.50
2018-12-24T00:22:00.820Z,454.50
2018-12-24T00:24:40.158Z,442.25
2018-12-24T00:27:17.141Z,404.25
2018-12-24T00:29:48.945Z,381.25
2018-12-24T00:32:22.296Z,403.75
2018-12-24T00:34:54.207Z,398.50
2018-12-24T00:37:26.057Z,410.00
2018-12-24T00:39:58.201Z,397.75
2018-12-24T00:42:49.810Z,379.00
2018-12-24T00:45:21.717Z,387.50
2018-12-24T00:47:53.600Z,411.25
2018-12-24T00:50:25.422Z,381.25
2018-12-24T00:52:59.652Z,387.00
2018-12-24T00:55:32.876Z,381.00
2018-12-24T00:58:05.599Z,386.25
2018-12-24T01:00:37.755Z,393.75
2018-12-24T01:03:10.714Z,394.75
2018-12-24T01:05:42.888Z,365.25
2018-12-24T01:08:16.818Z,386.50
2018-12-24T01:10:49.305Z,421.00
2018-12-24T01:13:21.358Z,565.50
2018-12-24T01:15:53.106Z,506.25
2018-12-24T01:18:25.257Z,602.75
2018-12-24T01:20:56.994Z,644.40
2018-12-24T01:23:29.255Z,577.40
2018-12-24T01:26:01.075Z,553.25
2018-12-24T01:28:32.975Z,531.00
2018-12-24T01:31:04.931Z,557.50
2018-12-24T01:33:36.921Z,530.25
2018-12-24T01:36:09.642Z,543.25
2018-12-24T01:38:41.452Z,548.00
2018-12-24T01:41:13.650Z,582.00
2018-12-24T01:43:45.742Z,742.20
2018-12-24T01:46:17.745Z,738.20
2018-12-24T01:48:49.888Z,910.40
2018-12-24T01:51:21.774Z,821.60
2018-12-24T01:53:53.560Z,723.60
2018-12-24T01:56:28.802Z,701.20
2018-12-24T01:59:01.017Z,635.75
2018-12-24T02:01:32.814Z,630.80
2018-12-24T02:04:07.122Z,641.00
2018-12-24T02:06:44.926Z,596.20
2018-12-24T02:09:17.715Z,601.60
2018-12-24T02:11:50.015Z,546.20
2018-12-24T02:14:21.916Z,561.75
2018-12-24T02:16:57.903Z,546.20
2018-12-24T02:19:31.356Z,476.25
2018-12-24T02:22:03.176Z,588.80
2018-12-24T02:24:35.312Z,556.80
2018-12-24T02:27:07.326Z,506.25
2018-12-24T02:29:47.425Z,535.50
2018-12-24T02:32:20.399Z,549.00
2018-12-24T02:34:52.305Z,491.75
2018-12-24T02:37:24.136Z,485.25
2018-12-24T02:39:55.954Z,479.25
2018-12-24T02:42:52.230Z,454.75
2018-12-24T02:45:20.620Z,491.25
2018-12-24T02:47:54.831Z,513.75
2018-12-24T02:50:26.964Z,491.25
2018-12-24T02:52:59.113Z,457.25
2018-12-24T02:58:21.867Z,446.25
2018-12-24T03:00:54.189Z,423.25
2018-12-24T03:03:26.409Z,446.75
2018-12-24T03:05:58.546Z,502.50
2018-12-24T03:08:31.332Z,453.75
2018-12-24T03:11:03.717Z,440.25
2018-12-24T03:13:37.252Z,476.75
2018-12-24T03:16:09.467Z,465.00
2018-12-24T03:18:41.421Z,463.50
2018-12-24T03:21:13.654Z,455.25
2018-12-24T03:23:45.787Z,413.75
2018-12-24T03:26:17.809Z,417.00
2018-12-24T03:28:49.619Z,416.75
2018-12-24T03:31:22.487Z,427.75
2018-12-24T03:33:54.578Z,394.25
2018-12-24T03:36:27.741Z,412.50
2018-12-24T03:38:59.736Z,405.50
2018-12-24T03:41:31.639Z,426.75
2018-12-24T03:44:04.134Z,428.25
2018-12-24T03:46:38.625Z,411.50
2018-12-24T03:49:10.486Z,402.25
2018-12-24T03:51:42.275Z,413.75
2018-12-24T03:54:14.238Z,394.00
2018-12-24T03:56:46.485Z,393.00
2018-12-24T03:59:18.283Z,364.75
2018-12-24T04:01:50.206Z,391.75
2018-12-24T04:04:22.138Z,417.50
2018-12-24T04:06:54.092Z,440.75
2018-12-24T04:09:26.258Z,415.50
2018-12-24T04:11:58.184Z,418.50
2018-12-24T04:14:30.279Z,422.75
2018-12-24T04:17:06.757Z,398.75
2018-12-24T04:19:39.555Z,412.25
2018-12-24T04:22:12.011Z,388.00
2018-12-24T04:24:47.991Z,406.25
2018-12-24T04:27:20.140Z,332.25
2018-12-24T04:29:52.188Z,378.25
2018-12-24T04:32:24.555Z,359.25
2018-12-24T04:34:56.393Z,385.75
2018-12-24T04:37:28.285Z,367.00
2018-12-24T04:40:00.311Z,374.00
2018-12-24T04:42:32.476Z,367.25
2018-12-24T04:45:09.192Z,336.75
2018-12-24T04:47:41.400Z,358.25
2018-12-24T04:50:13.454Z,374.25
2018-12-24T04:52:46.429Z,324.00
2018-12-24T04:55:18.475Z,346.25
2018-12-24T04:57:50.275Z,347.00
2018-12-24T05:00:23.279Z,334.25
2018-12-24T05:02:59.675Z,362.50
2018-12-24T05:05:31.564Z,334.50
2018-12-24T05:08:03.501Z,343.25
2018-12-24T05:10:35.377Z,308.50
2018-12-24T05:13:08.560Z,337.25
2018-12-24T05:15:40.847Z,336.75
2018-12-24T05:18:12.947Z,354.50
2018-12-24T05:20:46.955Z,335.00
2018-12-24T05:23:19.430Z,359.75
2018-12-24T05:25:51.393Z,340.75
2018-12-24T05:28:23.484Z,336.75
2018-12-24T05:30:55.391Z,348.25
2018-12-24T05:33:28.568Z,338.25
2018-12-24T05:36:00.465Z,357.00
2018-12-24T05:38:33.144Z,354.50
2018-12-24T05:41:05.318Z,380.75
2018-12-24T05:43:38.348Z,351.00
2018-12-24T05:46:10.375Z,353.75
2018-12-24T05:48:42.524Z,319.25
2018-12-24T05:51:15.290Z,358.00
2018-12-24T05:53:47.461Z,329.00
2018-12-24T05:56:28.937Z,343.75
2018-12-24T05:59:01.597Z,316.25
2018-12-24T06:01:52.675Z,337.75
2018-12-24T06:04:26.318Z,308.25
2018-12-24T06:06:58.394Z,319.25
2018-12-24T06:09:30.484Z,306.75
2018-12-24T06:12:02.469Z,247.50
2018-12-24T06:14:38.839Z,287.50
2018-12-24T06:17:11.335Z,297.75
2018-12-24T06:19:43.126Z,273.25
2018-12-24T06:22:14.762Z,284.25
2018-12-24T06:24:46.853Z,276.50
2018-12-24T06:27:18.859Z,295.00
2018-12-24T06:29:51.054Z,286.25
2018-12-24T06:32:22.885Z,247.00
2018-12-24T06:34:54.849Z,259.25
2018-12-24T06:37:26.685Z,288.50
2018-12-24T06:39:58.755Z,292.75
2018-12-24T06:42:31.629Z,292.00
2018-12-24T06:45:03.823Z,314.75
2018-12-24T06:47:36.169Z,297.50
2018-12-24T06:50:08.285Z,286.00
2018-12-24T06:52:40.753Z,296.50
2018-12-24T06:55:12.602Z,305.25
2018-12-24T06:57:45.765Z,266.50
2018-12-24T07:00:17.596Z,294.75
2018-12-24T07:02:49.481Z,293.50
2018-12-24T07:05:21.333Z,297.25
2018-12-24T07:07:53.389Z,265.25
2018-12-24T07:10:25.240Z,300.50
2018-12-24T07:12:57.305Z,253.75
2018-12-24T07:15:29.500Z,306.00
2018-12-24T07:18:01.929Z,271.50
2018-12-24T07:20:33.966Z,293.00
2018-12-24T07:23:05.586Z,257.25
2018-12-24T07:25:37.933Z,300.75
2018-12-24T07:28:09.923Z,300.00
2018-12-24T07:30:41.815Z,247.25
2018-12-24T07:33:13.746Z,288.00
2018-12-24T07:35:45.575Z,248.25
2018-12-24T07:38:17.476Z,286.75
2018-12-24T07:40:49.285Z,285.50
2018-12-24T07:43:21.227Z,298.25
2018-12-24T07:45:53.011Z,274.00
2018-12-24T07:48:25.244Z,265.00
2018-12-24T07:50:57.364Z,251.00
2018-12-24T07:53:29.528Z,259.50
2018-12-24T07:56:06.717Z,298.00
2018-12-24T07:58:39.590Z,268.75
2018-12-24T08:01:15.035Z,255.50
2018-12-24T08:03:47.231Z,253.00
2018-12-24T08:06:19.115Z,280.75
2018-12-24T08:08:51.189Z,272.75
2018-12-24T08:11:23.007Z,255.50
2018-12-24T08:13:56.889Z,242.60
2018-12-24T08:16:28.986Z,260.80
2018-12-24T08:19:01.361Z,247.00
2018-12-24T08:21:33.320Z,261.50
2018-12-24T08:24:06.257Z,261.40
2018-12-24T08:26:38.039Z,255.80
2018-12-24T08:29:09.900Z,233.40
2018-12-24T08:31:41.745Z,234.80
2018-12-24T08:34:13.573Z,252.00
2018-12-24T08:36:45.572Z,233.60
2018-12-24T08:39:17.545Z,247.60
2018-12-24T08:41:49.742Z,242.00
2018-12-24T08:44:21.691Z,230.00
2018-12-24T08:46:53.637Z,231.60
2018-12-24T08:49:25.949Z,212.00
2018-12-24T08:51:57.747Z,242.80
2018-12-24T08:54:29.774Z,251.40
2018-12-24T08:57:01.966Z,203.40
2018-12-24T08:59:33.843Z,220.40
2018-12-24T09:02:05.860Z,255.20
2018-12-24T09:04:37.575Z,243.40
2018-12-24T09:07:09.698Z,220.60
2018-12-24T09:09:41.504Z,254.00
2018-12-24T09:12:13.335Z,270.00
2018-12-24T09:14:50.212Z,270.50
2018-12-24T09:17:19.806Z,258.00
2018-12-24T09:19:51.840Z,256.50
2018-12-24T09:22:23.839Z,254.25
2018-12-24T09:24:56.018Z,240.50
2018-12-24T09:27:28.029Z,261.00
2018-12-24T09:29:59.976Z,274.50
2018-12-24T09:32:31.901Z,268.00
2018-12-24T09:35:07.090Z,294.75
2018-12-24T09:37:46.875Z,283.50
2018-12-24T09:40:18.960Z,305.50
2018-12-24T09:42:51.790Z,324.75
2018-12-24T09:45:23.618Z,312.75
2018-12-24T09:47:55.652Z,319.75
2018-12-24T09:50:27.913Z,316.25
2018-12-24T09:53:00.124Z,315.25
2018-12-24T09:55:31.990Z,286.75
2018-12-24T09:58:03.942Z,292.00
2018-12-24T10:00:35.804Z,297.25
2018-12-24T10:03:17.202Z,310.00
2018-12-24T10:05:49.121Z,325.75
2018-12-24T10:08:24.042Z,317.00
2018-12-24T10:10:55.802Z,344.00
2018-12-24T10:13:28.011Z,322.00
2018-12-24T10:15:59.985Z,315.50
2018-12-24T10:18:31.728Z,335.75
2018-12-24T10:21:03.987Z,319.75
2018-12-24T10:23:36.097Z,346.50
2018-12-24T10:26:08.093Z,347.75
2018-12-24T10:28:40.161Z,339.75
2018-12-24T10:31:12.098Z,324.25
2018-12-24T10:33:43.953Z,361.00
2018-12-24T10:36:15.838Z,335.50
2018-12-24T10:38:47.836Z,307.25
2018-12-24T10:41:22.995Z,349.50
2018-12-24T10:43:58.394Z,321.50
2018-12-24T10:46:30.353Z,325.25
2018-12-24T10:49:02.469Z,339.75
2018-12-24T10:51:38.806Z,298.50
2018-12-24T10:54:11.015Z,290.00
2018-12-24T10:56:43.005Z,347.50
2018-12-24T10:59:15.068Z,295.50
2018-12-24T11:01:47.084Z,325.00
2018-12-24T11:04:19.025Z,295.50
2018-12-24T11:06:50.599Z,308.50
2018-12-24T11:09:22.819Z,328.00
2018-12-24T11:11:54.712Z,347.75
2018-12-24T11:14:26.700Z,340.00
2018-12-24T11:16:58.801Z,338.50
2018-12-24T11:19:31.109Z,328.25
2018-12-24T11:22:03.229Z,336.75
2018-12-24T11:24:35.218Z,312.00
2018-12-24T11:27:06.840Z,316.75
2018-12-24T11:29:38.794Z,313.75
2018-12-24T11:32:10.929Z,321.25
2018-12-24T11:34:43.495Z,309.50
2018-12-24T11:37:15.279Z,297.25
2018-12-24T11:39:47.550Z,305.50
2018-12-24T11:42:19.427Z,302.25
2018-12-24T11:44:51.309Z,314.75
2018-12-24T11:47:23.144Z,301.50
2018-12-24T11:49:55.193Z,286.00
2018-12-24T11:52:27.649Z,301.75
2018-12-24T11:54:59.551Z,345.00
2018-12-24T11:57:31.371Z,319.75
2018-12-24T12:00:03.380Z,286.75
2018-12-24T12:02:35.121Z,323.00
2018-12-24T12:05:07.080Z,317.50
2018-12-24T12:07:40.005Z,313.00
2018-12-24T12:10:11.945Z,293.25
2018-12-24T12:12:43.820Z,308.00
2018-12-24T12:15:15.681Z,303.50
2018-12-24T12:17:47.692Z,328.00
2018-12-24T12:20:19.828Z,358.00
2018-12-24T12:22:51.964Z,342.00
2018-12-24T12:25:23.829Z,318.00
2018-12-24T12:27:55.565Z,361.50
2018-12-24T12:30:27.878Z,342.00
2018-12-24T12:32:59.715Z,318.75
2018-12-24T12:35:31.548Z,358.75
2018-12-24T12:38:03.485Z,327.75
2018-12-24T12:40:36.745Z,374.25
2018-12-24T12:43:08.960Z,391.50
2018-12-24T12:45:41.044Z,355.75
2018-12-24T12:48:12.900Z,369.00
2018-12-24T12:50:45.930Z,355.00
2018-12-24T12:53:18.021Z,377.00
2018-12-24T12:55:49.962Z,356.25
2018-12-24T12:58:23.722Z,375.25
2018-12-24T13:00:56.327Z,337.75
2018-12-24T13:03:28.174Z,334.50
2018-12-24T13:05:59.962Z,375.25
2018-12-24T13:08:31.645Z,351.75
2018-12-24T13:11:03.649Z,368.50
2018-12-24T13:13:36.861Z,364.25
2018-12-24T13:16:09.979Z,367.25
2018-12-24T13:18:41.856Z,373.50
2018-12-24T13:21:14.246Z,352.75
2018-12-24T13:23:46.393Z,381.75
2018-12-24T13:26:18.474Z,334.75
2018-12-24T13:28:50.255Z,371.50
2018-12-24T13:31:22.440Z,339.25
2018-12-24T13:33:54.253Z,358.75
2018-12-24T13:36:26.078Z,376.25
2018-12-24T13:38:58.006Z,389.75
2018-12-24T13:41:30.013Z,378.00
2018-12-24T13:44:01.709Z,390.00
2018-12-24T13:46:33.706Z,385.25
2018-12-24T13:49:05.731Z,404.50
2018-12-24T13:51:37.465Z,396.50
2018-12-24T13:54:09.729Z,408.00
2018-12-24T13:56:41.834Z,440.25
2018-12-24T13:59:16.755Z,437.50
2018-12-24T14:01:48.788Z,440.50
2018-12-24T14:04:20.478Z,435.50
2018-12-24T14:06:52.335Z,474.25
2018-12-24T14:09:24.417Z,473.50
2018-12-24T14:11:56.328Z,491.50
2018-12-24T14:14:28.435Z,503.00
2018-12-24T14:17:00.588Z,491.50
2018-12-24T14:19:32.687Z,540.80
2018-12-24T14:22:04.496Z,583.80
2018-12-24T14:24:37.074Z,596.25
2018-12-24T14:29:56.495Z,573.83
2018-12-24T14:32:27.829Z,634.40
2018-12-24T14:34:59.206Z,619.60
2018-12-24T14:37:30.531Z,629.20
2018-12-24T14:40:02.440Z,673.40
2018-12-24T14:42:33.605Z,636.60
2018-12-24T14:45:05.117Z,667.40
2018-12-24T14:47:36.500Z,654.80
2018-12-24T14:50:08.763Z,640.40
2018-12-24T14:52:40.288Z,696.40
2018-12-24T14:55:12.319Z,696.40
2018-12-24T14:57:43.734Z,673.00
2018-12-24T15:00:15.292Z,662.40
2018-12-24T15:02:46.686Z,669.00
2018-12-24T15:05:18.076Z,650.20
2018-12-24T15:07:49.420Z,668.80
2018-12-24T15:10:21.240Z,662.40
2018-12-24T15:12:52.505Z,668.60
2018-12-24T15:15:23.970Z,680.00
2018-12-24T15:17:55.231Z,717.40
2018-12-24T15:20:26.705Z,639.40
2018-12-24T15:22:58.100Z,721.40
2018-12-24T15:25:29.955Z,700.00
2018-12-24T15:28:01.724Z,711.67
2018-12-24T15:30:33.152Z,732.83
2018-12-24T15:33:04.642Z,752.60
2018-12-24T15:35:36.424Z,704.50
2018-12-24T15:38:12.255Z,790.00
2018-12-24T15:40:44.067Z,738.50
2018-12-24T15:43:16.364Z,732.80
2018-12-24T15:45:48.116Z,768.60
2018-12-24T15:48:19.894Z,769.20
2018-12-24T15:50:51.219Z,786.00
2018-12-24T15:53:22.676Z,825.60
2018-12-24T15:55:54.709Z,914.80
2018-12-24T15:58:29.278Z,893.00
2018-12-24T16:01:01.026Z,788.00
2018-12-24T16:03:36.836Z,841.00
2018-12-24T16:06:05.611Z,847.80
2018-12-24T16:08:37.250Z,825.00
2018-12-24T16:11:08.899Z,786.80
2018-12-24T16:13:40.569Z,802.00
2018-12-24T16:16:11.960Z,863.20
2018-12-24T16:18:43.649Z,895.60
2018-12-24T16:21:16.330Z,815.40
2018-12-24T16:23:48.013Z,857.20
2018-12-24T16:26:19.802Z,837.00
2018-12-24T16:28:51.270Z,778.40
2018-12-24T16:31:22.688Z,826.40
2018-12-24T16:33:54.499Z,832.60
2018-12-24T16:36:26.452Z,898.00
2018-12-24T16:38:57.903Z,825.80
2018-12-24T16:41:29.563Z,884.60
2018-12-24T16:44:01.327Z,880.60
2018-12-24T16:46:33.255Z,893.60
2018-12-24T16:49:04.980Z,919.50
2018-12-24T16:51:36.598Z,896.67
2018-12-24T16:54:08.344Z,907.60
2018-12-24T16:56:40.209Z,927.20
2018-12-24T16:59:11.817Z,905.80
2018-12-24T17:01:43.294Z,843.50
2018-12-24T17:04:15.064Z,896.40
2018-12-24T17:06:46.766Z,896.40
2018-12-24T17:09:22.675Z,923.60
2018-12-24T17:11:54.239Z,921.60
2018-12-24T17:14:26.055Z,871.80
2018-12-24T17:16:57.796Z,951.20
2018-12-24T17:19:29.570Z,913.20
2018-12-24T17:22:01.290Z,887.17
2018-12-24T17:24:33.249Z,892.40
2018-12-24T17:27:05.434Z,924.00
2018-12-24T17:29:36.702Z,958.83
2018-12-24T17:32:08.127Z,962.00
2018-12-24T17:34:39.388Z,991.33
2018-12-24T17:37:10.896Z,913.60
2018-12-24T17:39:42.848Z,894.60
2018-12-24T17:42:15.236Z,888.20
2018-12-24T17:44:46.693Z,932.60
2018-12-24T17:47:18.643Z,910.60
2018-12-24T17:49:50.491Z,862.40
2018-12-24T17:52:22.162Z,912.80
2018-12-24T17:54:53.942Z,888.80
2018-12-24T17:57:25.975Z,851.40
2018-12-24T17:59:57.930Z,889.00
2018-12-24T18:02:29.275Z,880.40
2018-12-24T18:05:00.976Z,885.80
2018-12-24T18:07:32.582Z,898.20
2018-12-24T18:10:07.387Z,894.20
2018-12-24T18:12:38.722Z,908.40
2018-12-24T18:15:10.486Z,871.00
2018-12-24T18:17:42.399Z,881.20
2018-12-24T18:20:14.173Z,925.80
2018-12-24T18:22:45.808Z,894.20
2018-12-24T18:25:17.463Z,904.20
2018-12-24T18:27:49.351Z,912.00
2018-12-24T18:30:21.048Z,852.40
2018-12-24T18:32:52.380Z,849.60
2018-12-24T18:35:24.008Z,815.00
2018-12-24T18:37:55.755Z,769.00
2018-12-24T18:40:27.433Z,822.83
2018-12-24T18:42:59.425Z,770.20
2018-12-24T18:45:30.827Z,737.00
2018-12-24T18:48:02.340Z,698.60
2018-12-24T18:50:34.223Z,729.20
2018-12-24T18:53:05.657Z,751.00
2018-12-24T18:55:36.940Z,742.60
2018-12-24T18:58:08.767Z,749.00
2018-12-24T19:00:40.543Z,783.60
2018-12-24T19:03:12.175Z,707.00
2018-12-24T19:05:44.153Z,734.40
2018-12-24T19:08:15.426Z,727.20
2018-12-24T19:10:47.276Z,746.60
2018-12-24T19:13:18.954Z,715.00
2018-12-24T19:15:50.628Z,685.80
2018-12-24T19:18:22.132Z,672.00
2018-12-24T19:20:53.933Z,681.25
2018-12-24T19:23:25.563Z,708.75
2018-12-24T19:25:57.352Z,672.40
2018-12-24T19:28:29.739Z,622.00
2018-12-24T19:31:01.498Z,646.20
2018-12-24T19:33:34.710Z,669.60
2018-12-24T19:36:06.324Z,661.60
2018-12-24T19:38:38.213Z,630.60
2018-12-24T19:41:09.749Z,591.80
2018-12-24T19:43:41.819Z,655.00
2018-12-24T19:46:13.935Z,647.80
2018-12-24T19:48:49.791Z,615.20
2018-12-24T19:51:21.211Z,626.60
2018-12-24T19:53:52.628Z,618.20
2018-12-24T19:56:24.577Z,611.75
2018-12-24T19:58:56.861Z,606.60
2018-12-24T20:01:28.538Z,579.00
2018-12-24T20:04:00.294Z,595.50
2018-12-24T20:06:31.998Z,553.75
2018-12-24T20:09:03.792Z,585.25
2018-12-24T20:11:35.325Z,604.20
2018-12-24T20:14:06.935Z,608.50
2018-12-24T20:16:38.545Z,521.25
2018-12-24T20:19:10.488Z,606.25
2018-12-24T20:21:42.296Z,636.25
2018-12-24T20:24:13.982Z,564.00
2018-12-24T20:26:45.498Z,588.25
2018-12-24T20:29:17.425Z,548.50
2018-12-24T20:31:49.031Z,581.00
2018-12-24T20:34:20.764Z,556.25
2018-12-24T20:36:52.350Z,545.75
2018-12-24T20:39:24.100Z,517.25
2018-12-24T20:41:55.854Z,546.00
2018-12-24T20:44:27.672Z,553.50
2018-12-24T20:46:59.454Z,515.75
2018-12-24T20:49:31.036Z,519.25
2018-12-24T20:52:02.793Z,537.00
2018-12-24T20:54:34.379Z,542.00
2018-12-24T20:57:06.162Z,532.75
2018-12-24T20:59:38.629Z,516.00
2018-12-24T21:02:10.078Z,528.50
2018-12-24T21:04:41.842Z,498.75
2018-12-24T21:07:13.467Z,512.50
2018-12-24T21:09:45.026Z,495.25
2018-12-24T21:12:16.514Z,492.25
2018-12-24T21:14:48.253Z,437.75
2018-12-24T21:17:19.780Z,486.75
2018-12-24T21:19:51.561Z,486.50
2018-12-24T21:22:23.190Z,474.00
2018-12-24T21:24:55.131Z,468.75
2018-12-24T21:27:26.733Z,470.75
2018-12-24T21:29:58.850Z,458.50
2018-12-24T21:32:30.388Z,446.50
2018-12-24T21:35:02.292Z,484.50
2018-12-24T21:37:34.021Z,441.50
2018-12-24T21:40:05.910Z,476.50
2018-12-24T21:42:37.591Z,461.00
2018-12-24T21:45:09.468Z,452.75
2018-12-24T21:47:43.741Z,416.25
2018-12-24T21:50:15.351Z,382.75
2018-12-24T21:52:46.703Z,452.25
2018-12-24T21:55:18.234Z,398.75
2018-12-24T21:57:49.894Z,416.75
2018-12-24T22:00:21.968Z,424.50
2018-12-24T22:02:53.360Z,429.00
2018-12-24T22:05:24.899Z,439.75
2018-12-24T22:07:56.460Z,413.25
2018-12-24T22:10:28.068Z,429.00
2018-12-24T22:12:59.585Z,425.00
2018-12-24T22:15:31.204Z,416.00
2018-12-24T22:18:02.875Z,444.00
2018-12-24T22:20:34.476Z,409.50
2018-12-24T22:23:08.062Z,416.00
2018-12-24T22:25:39.812Z,418.50
2018-12-24T22:28:13.982Z,418.75
2018-12-24T22:30:47.344Z,404.50
2018-12-24T22:33:19.097Z,380.50
2018-12-24T22:35:50.569Z,411.50
2018-12-24T22:38:21.954Z,399.00
2018-12-24T22:40:53.887Z,397.50
2018-12-24T22:43:25.420Z,399.00
2018-12-24T22:45:57.340Z,427.25
2018-12-24T22:48:31.128Z,407.00
2018-12-24T22:51:02.781Z,380.75
2018-12-24T22:53:34.332Z,408.00
2018-12-24T22:56:06.064Z,383.25
2018-12-24T22:58:37.703Z,407.25
2018-12-24T23:01:09.593Z,388.00
2018-12-24T23:03:41.049Z,410.50
2018-12-24T23:06:12.782Z,396.25
2018-12-24T23:08:44.515Z,379.50
2018-12-24T23:11:15.984Z,396.25
2018-12-24T23:13:47.590Z,386.25
2018-12-24T23:16:19.017Z,383.50
2018-12-24T23:18:50.745Z,357.00
2018-12-24T23:21:22.335Z,398.75
2018-12-24T23:23:53.833Z,393.25
2018-12-24T23:26:25.526Z,399.25
2018-12-24T23:28:57.151Z,404.25
2018-12-24T23:31:29.197Z,344.00
2018-12-24T23:34:00.578Z,401.50
2018-12-24T23:36:32.099Z,362.00
2018-12-24T23:39:04.863Z,382.00
2018-12-24T23:41:36.149Z,381.75
2018-12-24T23:44:07.479Z,384.75
2018-12-24T23:46:38.855Z,367.75
2018-12-24T23:49:10.503Z,394.25
2018-12-24T23:51:42.565Z,388.50
2018-12-24T23:54:13.854Z,401.50
2018-12-24T23:56:45.350Z,373.75
2018-12-24T23:59:16.901Z,409.50
